Painted Post, New York
Current Conditions -  °F | °C
As of 11:53 AM on Friday 24 Oct 2014 (Local Time) from KELM Reporting Station
Clear Clear  
Wind Chill: 60°   Ceiling: Unl
Heat Index: 60°   Visibility: 10mi
Dew Point: 40°   Wind: 12mph
Humidity: 47%   Direction: 350°N
Pressure: 29.94"   Gusts: 17mph
Location:  42.16°N, 77.09°W
Report Text: KELM 241553Z 35010G15KT 10SM CLR 16/04 A2994 RMK AO2 SLP141 T01560044
Loading
Personal Weather Stations






























Interactive Weather Map New forecast layout! Learn more

10-Day Weather Forecast

Advertisements
Track Severe Weather on mobile